Time;durP1;ratioP1;P1;durP2;ratioP2;P2;SDS_P1;SDS_P2;PMS_P1;PMS_P2;Temp;Humidity;BMP_temperature;BMP_pressure;BME280_temperature;BME280_humidity;BME280_pressure;Samples;Min_cycle;Max_cycle;Signal;HPM_P1;HPM_P2
2021/12/04 00:01:18;;;;;;;19.87;11.70;;;;;;;-0.09;86.37;99361.89;1727450;80;21087;-73
2021/12/04 00:03:44;;;;;;;16.47;13.57;;;;;;;-0.09;86.23;99362.70;1775690;80;21132;-81
2021/12/04 00:06:29;;;;;;;17.70;12.37;;;;;;;-0.11;86.14;99358.13;1785948;80;21512;-77
2021/12/04 00:09:01;;;;;;;22.03;13.73;;;;;;;-0.10;86.07;99366.88;1738160;80;21036;-75
2021/12/04 00:11:24;;;;;;;20.23;14.37;;;;;;;-0.10;86.04;99369.02;1785360;80;21032;-76
2021/12/04 00:13:51;;;;;;;23.17;15.07;;;;;;;-0.10;86.04;99369.52;1750481;81;21572;-73
2021/12/04 00:16:17;;;;;;;20.23;14.03;;;;;;;-0.09;86.05;99370.64;1754787;81;22227;-74
2021/12/04 00:18:43;;;;;;;16.10;13.57;;;;;;;-0.08;85.88;99368.31;1734848;81;20992;-72
2021/12/04 00:21:10;;;;;;;22.17;17.00;;;;;;;-0.09;85.85;99373.78;1720836;81;20985;-78
2021/12/04 00:23:37;;;;;;;16.30;13.40;;;;;;;-0.10;85.75;99361.09;1749026;81;20973;-77
2021/12/04 00:26:04;;;;;;;18.40;13.07;;;;;;;-0.10;85.76;99365.06;1736334;82;21002;-74
2021/12/04 00:28:31;;;;;;;14.07;11.50;;;;;;;-0.09;85.78;99360.56;1753280;81;21304;-76
2021/12/04 00:30:59;;;;;;;27.67;14.23;;;;;;;-0.09;85.69;99370.64;1766741;81;21494;-72
2021/12/04 00:33:31;;;;;;;23.53;13.67;;;;;;;-0.11;85.65;99377.13;1757081;81;21072;-74
2021/12/04 00:36:00;;;;;;;20.57;13.23;;;;;;;-0.16;85.64;99367.63;1761189;81;21690;-73
2021/12/04 00:49:18;;;;;;;17.70;13.63;;;;;;;-0.35;86.29;99364.29;1755593;80;21704;-74
2021/12/04 00:51:53;;;;;;;17.10;12.37;;;;;;;-0.36;86.40;99360.83;1780654;80;21453;-72
2021/12/04 00:54:20;;;;;;;15.93;12.30;;;;;;;-0.36;86.48;99365.29;1787469;80;22022;-69
2021/12/04 00:56:46;;;;;;;18.87;12.53;;;;;;;-0.37;86.48;99365.79;1787420;80;22169;-73
2021/12/04 00:59:14;;;;;;;17.10;13.63;;;;;;;-0.35;86.53;99369.08;1764370;80;21599;-76
2021/12/04 01:01:41;;;;;;;15.03;13.13;;;;;;;-0.35;86.46;99362.47;1731364;81;21035;-78
2021/12/04 01:04:13;;;;;;;15.23;13.63;;;;;;;-0.36;86.36;99366.61;1752893;81;21071;-84
2021/12/04 01:06:40;;;;;;;18.17;12.63;;;;;;;-0.36;86.42;99367.43;1761953;80;21490;-76
2021/12/04 01:09:09;;;;;;;16.10;11.97;;;;;;;-0.36;86.38;99364.79;1755426;80;26534;-74
2021/12/04 01:11:37;;;;;;;25.17;15.60;;;;;;;-0.35;86.32;99360.33;1758359;81;21500;-73
2021/12/04 01:14:04;;;;;;;20.23;12.87;;;;;;;-0.36;86.28;99374.53;1756114;80;21029;-74
2021/12/04 01:16:31;;;;;;;18.77;12.13;;;;;;;-0.37;86.27;99378.17;1753762;80;20964;-77
2021/12/04 01:18:58;;;;;;;14.43;11.83;;;;;;;-0.37;86.29;99375.03;1736494;81;21308;-76
2021/12/04 01:21:24;;;;;;;17.33;12.30;;;;;;;-0.39;86.27;99373.60;1748764;80;21001;-75
2021/12/04 01:23:50;;;;;;;20.13;11.50;;;;;;;-0.41;86.26;99379.56;1722600;81;21004;-77
2021/12/04 01:26:17;;;;;;;17.47;12.27;;;;;;;-0.41;86.29;99378.23;1759988;80;21059;-75
2021/12/04 01:28:43;;;;;;;21.47;15.07;;;;;;;-0.40;86.33;99388.63;1761138;80;20936;-75
2021/12/04 01:31:09;;;;;;;16.37;13.20;;;;;;;-0.39;86.24;99382.34;1777577;80;21502;-74
2021/12/04 01:33:36;;;;;;;19.20;12.37;;;;;;;-0.41;86.14;99377.73;1769005;80;21502;-75
2021/12/04 01:36:03;;;;;;;20.87;13.83;;;;;;;-0.43;86.21;99385.02;1778129;80;21075;-74
2021/12/04 01:38:30;;;;;;;17.70;13.77;;;;;;;-0.43;86.15;99396.91;1760087;80;20996;-74
2021/12/04 01:40:56;;;;;;;18.27;13.17;;;;;;;-0.43;86.23;99394.80;1750053;80;21043;-75
2021/12/04 01:43:24;;;;;;;18.60;15.17;;;;;;;-0.44;86.20;99396.61;1754475;81;21140;-74
2021/12/04 01:45:54;;;;;;;18.27;13.63;;;;;;;-0.47;86.16;99396.97;1732431;81;21056;-75
2021/12/04 01:48:21;;;;;;;20.23;14.90;;;;;;;-0.49;86.14;99397.17;1754431;81;21063;-75
2021/12/04 01:50:48;;;;;;;17.83;12.13;;;;;;;-0.50;86.17;99392.89;1754566;81;20972;-77
2021/12/04 01:53:14;;;;;;;19.37;14.37;;;;;;;-0.52;86.15;99405.95;1754401;81;21087;-75
2021/12/04 01:55:40;;;;;;;18.63;13.37;;;;;;;-0.54;86.10;99390.81;1756622;80;21149;-77
2021/12/04 01:58:07;;;;;;;21.67;14.43;;;;;;;-0.59;86.17;99405.89;1762816;80;21009;-74
2021/12/04 02:00:38;;;;;;;18.97;13.50;;;;;;;-0.60;86.20;99402.10;1744469;80;21051;-73
2021/12/04 02:03:07;;;;;;;18.97;15.83;;;;;;;-0.61;86.27;99407.88;1786249;80;21045;-75
2021/12/04 02:05:39;;;;;;;20.17;14.70;;;;;;;-0.61;86.31;99406.56;1740639;81;21041;-74
2021/12/04 02:08:14;;;;;;;17.10;13.30;;;;;;;-0.60;86.32;99412.66;1750502;81;21029;-74
2021/12/04 02:10:43;;;;;;;17.60;13.33;;;;;;;-0.60;86.34;99412.17;1752675;80;21015;-74
2021/12/04 02:13:10;;;;;;;18.93;14.07;;;;;;;-0.59;86.37;99413.81;1763519;80;21521;-74
2021/12/04 02:15:36;;;;;;;20.37;13.07;;;;;;;-0.59;86.29;99407.71;1727416;81;21001;-75
2021/12/04 02:18:05;;;;;;;17.07;12.50;;;;;;;-0.58;86.40;99414.14;1737794;80;21489;-74
2021/12/04 02:20:33;;;;;;;19.50;14.87;;;;;;;-0.57;86.35;99410.47;1755886;80;21200;-72
2021/12/04 02:23:05;;;;;;;18.43;12.63;;;;;;;-0.56;86.25;99416.57;1731116;81;20976;-74
2021/12/04 02:25:33;;;;;;;;;;;;;;;-0.61;86.19;99413.16;1755660;81;20932;-74
2021/12/04 02:28:01;;;;;;;18.87;12.77;;;;;;;-0.62;86.22;99419.44;1753551;81;20139;-75
2021/12/04 02:30:32;;;;;;;21.37;14.57;;;;;;;-0.66;86.27;99414.22;1733969;81;21063;-75
2021/12/04 02:32:58;;;;;;;19.90;13.43;;;;;;;-0.65;86.34;99424.28;1759687;81;21135;-77
2021/12/04 02:35:25;;;;;;;21.07;13.90;;;;;;;-0.67;86.38;99426.31;1754476;80;20924;-79
2021/12/04 02:37:53;;;;;;;16.40;12.63;;;;;;;-0.68;86.50;99424.66;1789955;79;21083;-77
2021/12/04 02:40:22;;;;;;;18.33;13.13;;;;;;;-0.67;86.46;99431.06;1753837;81;21008;-76
2021/12/04 02:42:49;;;;;;;16.37;13.03;;;;;;;-0.66;86.49;99433.20;1752719;81;21040;-76
2021/12/04 02:45:16;;;;;;;22.17;14.90;;;;;;;-0.64;86.52;99436.49;1753197;81;21187;-76
2021/12/04 02:47:42;;;;;;;18.13;12.20;;;;;;;-0.64;86.42;99429.39;1752929;81;21532;-76
2021/12/04 02:50:10;;;;;;;17.70;13.53;;;;;;;-0.64;86.43;99433.35;1760193;80;20963;-77
2021/12/04 02:52:38;;;;;;;25.87;16.43;;;;;;;-0.61;86.49;99434.29;1765132;80;21075;-77
2021/12/04 02:55:05;;;;;;;21.13;13.10;;;;;;;-0.58;86.48;99433.12;1784104;79;21024;-77
2021/12/04 02:57:35;;;;;;;19.60;12.70;;;;;;;-0.55;86.43;99436.70;1759411;80;21038;-76
2021/12/04 03:00:01;;;;;;;17.33;13.17;;;;;;;-0.53;86.44;99432.07;1770941;80;20976;-74
2021/12/04 03:02:27;;;;;;;17.47;12.93;;;;;;;-0.50;86.33;99425.91;1733521;81;21052;-77
2021/12/04 03:04:57;;;;;;;17.50;11.47;;;;;;;-0.51;86.13;99418.98;1730220;81;21054;-75
2021/12/04 03:07:24;;;;;;;17.87;12.87;;;;;;;-0.55;86.07;99421.67;1753768;81;20963;-75
2021/12/04 03:09:51;;;;;;;19.53;12.77;;;;;;;-0.55;85.94;99427.45;1718824;80;21210;-74
2021/12/04 03:12:19;;;;;;;17.13;11.57;;;;;;;-0.59;85.90;99424.38;1766042;80;20988;-76
2021/12/04 03:14:47;;;;;;;18.60;11.60;;;;;;;-0.62;85.90;99419.94;1790802;80;20964;-75
2021/12/04 03:17:17;;;;;;;17.37;13.67;;;;;;;-0.63;85.99;99422.30;1728592;81;21541;-75
2021/12/04 03:19:43;;;;;;;15.87;11.97;;;;;;;-0.65;85.88;99417.68;1758024;80;21528;-76
2021/12/04 03:22:09;;;;;;;17.03;13.07;;;;;;;-0.70;85.94;99419.55;1734039;82;21260;-76
2021/12/04 03:24:40;;;;;;;17.70;13.43;;;;;;;-0.72;86.05;99425.52;1721997;82;20945;-76
2021/12/04 03:27:05;;;;;;;19.83;12.50;;;;;;;-0.73;86.13;99432.31;1742654;82;21095;-77
2021/12/04 03:29:38;;;;;;;20.87;14.13;;;;;;;-0.74;86.16;99437.27;1748223;80;21059;-76
2021/12/04 03:32:21;;;;;;;21.97;16.10;;;;;;;-0.79;86.19;99436.50;1781869;80;21044;-78
2021/12/04 03:42:34;;;;;;;20.80;14.50;;;;;;;-0.82;86.21;99438.20;1751006;82;21088;-77
2021/12/04 03:45:02;;;;;;;16.77;13.67;;;;;;;-0.84;86.26;99448.11;1750877;82;20973;-75
2021/12/04 03:47:30;;;;;;;21.00;15.33;;;;;;;-0.85;86.33;99445.14;1729799;82;21070;-75
2021/12/04 03:49:57;;;;;;;23.70;13.73;;;;;;;-0.83;86.27;99449.75;1752472;80;20964;-74
2021/12/04 03:52:23;;;;;;;22.40;12.97;;;;;;;-0.84;86.19;99445.97;1768869;80;21023;-74
2021/12/04 03:54:49;;;;;;;21.17;13.27;;;;;;;-0.83;86.15;99452.89;1779070;80;21560;-74
2021/12/04 03:57:16;;;;;;;17.93;12.53;;;;;;;-0.81;86.19;99457.47;1716687;81;21024;-75
2021/12/04 03:59:46;;;;;;;21.43;13.67;;;;;;;-0.82;85.99;99453.22;1750705;80;21154;-74
2021/12/04 04:02:15;;;;;;;15.43;11.10;;;;;;;-0.82;85.99;99455.86;1751637;80;21009;-75
2021/12/04 04:04:41;;;;;;;17.13;12.73;;;;;;;-0.81;85.95;99454.33;1742590;82;20945;-75
2021/12/04 04:07:08;;;;;;;19.03;15.20;;;;;;;-0.80;85.83;99452.52;1721589;82;21096;-75
2021/12/04 04:09:36;;;;;;;17.37;11.97;;;;;;;-0.80;85.82;99449.88;1750446;80;22285;-74
2021/12/04 04:12:05;;;;;;;15.83;12.03;;;;;;;-0.78;85.77;99454.48;1781821;80;21000;-75
2021/12/04 04:14:34;;;;;;;17.43;12.10;;;;;;;-0.81;85.70;99454.33;1782068;80;20905;-76
2021/12/04 04:17:00;;;;;;;23.50;13.63;;;;;;;-0.84;85.64;99461.31;1779925;80;21071;-75
2021/12/04 04:19:28;;;;;;;18.00;11.90;;;;;;;-0.88;85.73;99466.64;1781318;79;21039;-76
2021/12/04 04:21:56;;;;;;;19.40;13.57;;;;;;;-0.93;85.82;99467.19;1798918;79;20987;-76
2021/12/04 04:24:25;;;;;;;21.33;13.07;;;;;;;-0.95;85.89;99463.89;1799210;79;21158;-77
2021/12/04 04:26:51;;;;;;;15.73;12.53;;;;;;;-0.98;86.00;99466.91;1791055;80;20943;-75
2021/12/04 04:29:18;;;;;;;14.33;11.10;;;;;;;-0.99;86.06;99464.44;1787949;79;20971;-75
2021/12/04 04:31:49;;;;;;;21.77;14.20;;;;;;;-1.01;86.24;99466.45;1759268;81;21004;-75
2021/12/04 04:34:29;;;;;;;15.33;11.70;;;;;;;-1.00;86.30;99472.03;1739541;80;20980;-74
2021/12/04 04:37:19;;;;;;;20.63;13.10;;;;;;;-0.99;86.35;99473.68;1776991;80;21842;-78
2021/12/04 04:59:08;;;;;;;21.63;14.40;;;;;;;-0.94;86.20;99469.50;1759371;81;21028;-78
2021/12/04 05:01:42;;;;;;;19.20;13.30;;;;;;;-0.96;86.24;99468.84;1762003;80;20996;-76
2021/12/04 05:14:36;;;;;;;18.73;14.17;;;;;;;-0.97;86.28;99471.19;1778356;80;21540;-78
2021/12/04 05:17:10;;;;;;;22.33;16.27;;;;;;;-0.96;86.37;99471.48;1765966;80;21064;-76
2021/12/04 05:19:45;;;;;;;27.90;16.63;;;;;;;-0.91;86.41;99481.00;1778669;79;20982;-77
2021/12/04 05:22:12;;;;;;;19.47;14.90;;;;;;;-0.86;86.37;99483.09;1733355;81;20999;-75
2021/12/04 05:24:39;;;;;;;21.17;16.53;;;;;;;-0.82;86.30;99492.32;1716320;82;21050;-75
2021/12/04 05:27:07;;;;;;;27.47;17.73;;;;;;;-0.79;86.18;99495.91;1735559;82;21062;-76
2021/12/04 05:29:33;;;;;;;29.83;18.13;;;;;;;-0.75;86.09;99499.81;1716564;81;21045;-76
2021/12/04 05:32:05;;;;;;;26.80;18.70;;;;;;;-0.72;85.98;99500.76;1743472;81;21176;-76
2021/12/04 05:34:32;;;;;;;21.33;15.53;;;;;;;-0.68;85.88;99505.20;1751028;81;21025;-75
2021/12/04 05:36:59;;;;;;;31.87;17.20;;;;;;;-0.65;85.76;99500.37;1719118;81;21032;-74
2021/12/04 05:39:26;;;;;;;27.10;18.40;;;;;;;-0.65;85.57;99505.65;1716093;83;21075;-72
2021/12/04 05:41:53;;;;;;;19.43;15.17;;;;;;;-0.62;85.46;99508.41;1761311;81;22890;-75
2021/12/04 05:44:25;;;;;;;22.23;14.03;;;;;;;-0.62;85.28;99513.69;1765785;81;21041;-76
2021/12/04 05:47:08;;;;;;;23.57;15.67;;;;;;;-0.64;85.21;99513.07;1765077;81;21056;-77
2021/12/04 05:49:35;;;;;;;21.60;15.53;;;;;;;-0.69;84.99;99516.75;1755327;81;21063;-76
2021/12/04 05:54:44;;;;;;;21.13;15.77;;;;;;;-0.79;85.12;99518.34;1751991;81;21592;-76
2021/12/04 05:57:01;;;;;;;19.48;12.43;;;;;;;-0.84;85.14;99517.24;1761435;81;20989;-75
2021/12/04 05:59:29;;;;;;;18.20;13.27;;;;;;;-0.87;85.24;99513.16;1765557;80;20941;-74
2021/12/04 06:01:56;;;;;;;20.70;13.80;;;;;;;-0.91;85.27;99514.49;1734485;81;21564;-78
2021/12/04 06:04:22;;;;;;;17.33;12.90;;;;;;;-0.93;85.34;99517.83;1730001;81;21149;-76
2021/12/04 06:06:49;;;;;;;19.43;13.10;;;;;;;-0.97;85.45;99522.66;1743507;81;21831;-74
2021/12/04 06:09:17;;;;;;;20.77;13.07;;;;;;;-0.96;85.57;99532.19;1765972;80;21004;-74
2021/12/04 06:11:43;;;;;;;24.37;14.63;;;;;;;-0.95;85.60;99528.56;1723039;81;20989;-74
2021/12/04 06:14:10;;;;;;;19.37;14.07;;;;;;;-0.94;85.56;99528.06;1757592;81;21087;-75
2021/12/04 06:16:37;;;;;;;27.00;16.43;;;;;;;-0.94;85.57;99536.80;1766300;81;21069;-77
2021/12/04 06:24:34;;;;;;;17.33;13.90;;;;;;;-0.82;85.54;99542.98;1754263;81;20944;-77
2021/12/04 06:27:00;;;;;;;18.63;14.00;;;;;;;-0.82;85.29;99539.02;1753954;81;22223;-75
2021/12/04 06:29:26;;;;;;;19.10;13.07;;;;;;;-0.85;85.21;99541.50;1753590;81;21007;-77
2021/12/04 06:31:54;;;;;;;19.33;13.67;;;;;;;-0.85;85.28;99542.00;1752988;81;21577;-74
2021/12/04 06:34:20;;;;;;;18.07;13.80;;;;;;;-0.87;85.22;99545.33;1755616;80;21015;-76
2021/12/04 06:36:47;;;;;;;23.10;16.90;;;;;;;-0.87;85.33;99545.33;1786259;80;22146;-76
2021/12/04 06:39:13;;;;;;;27.03;16.90;;;;;;;-0.87;85.34;99544.84;1790165;80;21471;-75
2021/12/04 06:41:41;;;;;;;28.70;19.93;;;;;;;-0.84;85.40;99548.92;1790177;80;20988;-74
2021/12/04 06:44:07;;;;;;;27.50;17.40;;;;;;;-0.81;85.41;99549.87;1770635;80;21158;-79
2021/12/04 06:46:35;;;;;;;31.57;17.83;;;;;;;-0.75;85.57;99555.76;1758979;81;21000;-75
2021/12/04 06:49:06;;;;;;;28.13;17.93;;;;;;;-0.68;85.64;99552.23;1758807;81;21036;-77
2021/12/04 06:51:37;;;;;;;23.13;18.50;;;;;;;-0.60;85.49;99547.35;1734897;81;21069;-75
2021/12/04 06:56:34;;;;;;;29.20;19.03;;;;;;;-0.49;85.32;99554.34;1758916;81;21539;-75
2021/12/04 06:59:05;;;;;;;23.37;14.37;;;;;;;-0.44;85.10;99555.11;1755632;81;20976;-79
2021/12/04 07:01:29;;;;;;;22.87;15.07;;;;;;;-0.43;84.67;99559.89;1752640;81;21051;-75
2021/12/04 07:03:56;;;;;;;24.53;17.00;;;;;;;-0.49;84.22;99555.66;1753136;81;21039;-75
2021/12/04 07:06:22;;;;;;;28.73;17.13;;;;;;;-0.53;84.20;99557.52;1753012;81;21112;-77
2021/12/04 07:08:50;;;;;;;22.83;15.57;;;;;;;-0.57;84.06;99555.72;1729526;81;21087;-77
2021/12/04 07:11:17;;;;;;;23.00;15.67;;;;;;;-0.60;84.06;99551.31;1752952;81;21592;-77
2021/12/04 07:13:43;;;;;;;23.20;15.03;;;;;;;-0.63;84.00;99554.33;1729335;81;21106;-75
2021/12/04 07:16:13;;;;;;;31.60;18.60;;;;;;;-0.62;84.03;99554.62;1729612;81;20940;-77
2021/12/04 07:18:38;;;;;;;28.43;18.07;;;;;;;-0.61;84.00;99563.69;1752972;81;22883;-77
2021/12/04 07:21:05;;;;;;;22.53;14.17;;;;;;;-0.59;84.09;99570.12;1729285;81;21198;-76
2021/12/04 07:23:32;;;;;;;27.97;18.50;;;;;;;-0.54;84.09;99565.13;1752931;81;21509;-77
2021/12/04 07:25:58;;;;;;;30.17;17.07;;;;;;;-0.55;83.88;99567.44;1753337;81;21567;-77
2021/12/04 07:28:25;;;;;;;22.60;16.93;;;;;;;-0.57;83.87;99564.97;1729324;81;21032;-74
2021/12/04 07:30:52;;;;;;;24.13;16.03;;;;;;;-0.57;84.04;99571.57;1729010;81;21045;-75
2021/12/04 07:33:18;;;;;;;33.73;22.27;;;;;;;-0.50;84.21;99564.58;1729272;81;21074;-77
2021/12/04 07:35:44;;;;;;;30.57;18.17;;;;;;;-0.40;84.29;99568.77;1752984;81;21062;-76
2021/12/04 07:38:11;;;;;;;31.97;21.80;;;;;;;-0.34;84.17;99570.69;1757092;81;20972;-74
2021/12/04 07:40:38;;;;;;;39.23;24.23;;;;;;;-0.31;84.09;99568.98;1759144;81;21644;-76
2021/12/04 07:43:04;;;;;;;27.70;20.13;;;;;;;-0.28;83.93;99562.83;1758671;81;21088;-78
2021/12/04 07:45:31;;;;;;;24.37;17.03;;;;;;;-0.23;83.83;99571.03;1735614;81;21095;-77
2021/12/04 07:47:57;;;;;;;29.57;18.97;;;;;;;-0.19;83.78;99572.83;1705231;81;20929;-76
2021/12/04 07:50:24;;;;;;;26.60;17.70;;;;;;;-0.15;83.64;99582.02;1735626;81;21028;-77
2021/12/04 07:52:50;;;;;;;27.20;18.03;;;;;;;-0.11;83.43;99580.64;1758843;81;21558;-76
2021/12/04 07:55:17;;;;;;;30.77;21.00;;;;;;;-0.09;83.26;99586.05;1757733;81;21057;-77
2021/12/04 07:57:43;;;;;;;31.90;19.37;;;;;;;-0.06;83.11;99578.27;1729548;81;21057;-78
2021/12/04 08:00:12;;;;;;;37.10;19.57;;;;;;;-0.04;82.99;99591.61;1729730;81;20996;-77
2021/12/04 08:02:41;;;;;;;27.43;19.73;;;;;;;-0.02;82.94;99590.11;1715947;81;20932;-76
2021/12/04 08:05:08;;;;;;;28.43;18.53;;;;;;;-0.02;82.78;99598.04;1753207;81;21486;-75
2021/12/04 08:07:35;;;;;;;27.30;17.07;;;;;;;-0.03;82.82;99593.25;1729721;81;21091;-77
2021/12/04 08:10:03;;;;;;;29.43;20.17;;;;;;;0.01;82.89;99592.38;1759066;81;21264;-75
2021/12/04 08:12:29;;;;;;;33.37;19.23;;;;;;;0.05;83.03;99588.35;1759194;81;20992;-77
2021/12/04 08:14:56;;;;;;;27.07;18.47;;;;;;;0.07;83.01;99586.36;1735826;81;21580;-76
2021/12/04 08:17:22;;;;;;;27.07;19.20;;;;;;;0.10;83.17;99589.12;1759334;80;20997;-76
2021/12/04 08:19:48;;;;;;;30.60;20.90;;;;;;;0.20;83.37;99587.00;1758845;81;21005;-79
2021/12/04 08:22:15;;;;;;;27.10;17.53;;;;;;;0.28;83.23;99587.73;1759331;81;21564;-83
2021/12/04 08:24:44;;;;;;;32.33;18.57;;;;;;;0.32;83.12;99588.18;1735458;81;21512;-76
2021/12/04 08:27:10;;;;;;;25.13;18.63;;;;;;;0.32;83.01;99586.86;1755249;80;21579;-77
2021/12/04 08:29:37;;;;;;;29.17;20.47;;;;;;;0.28;82.92;99575.84;1756333;81;21014;-80
2021/12/04 08:32:05;;;;;;;30.43;18.27;;;;;;;0.26;83.08;99578.34;1759117;81;21061;-79
2021/12/04 08:34:32;;;;;;;32.67;20.27;;;;;;;0.30;83.23;99572.98;1735388;81;21252;-75
2021/12/04 08:36:58;;;;;;;25.83;20.03;;;;;;;0.35;83.27;99566.64;1735180;81;20953;-76
2021/12/04 08:39:25;;;;;;;27.37;18.87;;;;;;;0.42;83.31;99570.19;1759120;81;20997;-78
2021/12/04 08:41:51;;;;;;;31.00;20.03;;;;;;;0.51;83.38;99561.12;1759125;81;21012;-78
2021/12/04 08:44:19;;;;;;;33.20;21.33;;;;;;;0.60;83.18;99565.78;1759037;81;21016;-77
2021/12/04 08:46:46;;;;;;;34.10;23.30;;;;;;;0.61;83.10;99560.30;1754561;81;21537;-75
2021/12/04 08:49:13;;;;;;;34.50;22.37;;;;;;;0.64;82.98;99565.70;1752921;81;21028;-77
2021/12/04 08:51:39;;;;;;;34.97;25.87;;;;;;;0.65;83.14;99567.35;1757820;81;21032;-76
2021/12/04 08:54:05;;;;;;;35.43;25.60;;;;;;;0.71;83.23;99567.93;1758998;81;21060;-78
2021/12/04 08:56:33;;;;;;;28.23;22.43;;;;;;;0.79;83.30;99563.82;1759092;81;21038;-78
2021/12/04 08:59:01;;;;;;;30.83;20.03;;;;;;;0.87;83.25;99563.17;1758909;81;21310;-76
2021/12/04 09:01:31;;;;;;;34.93;21.47;;;;;;;0.87;82.76;99563.68;1735166;81;21080;-78
2021/12/04 09:04:06;;;;;;;26.30;21.40;;;;;;;0.82;82.62;99556.81;1759129;81;21001;-81
2021/12/04 09:06:33;;;;;;;36.53;19.70;;;;;;;0.85;82.91;99558.59;1675663;84;21183;-79
2021/12/04 09:09:01;;;;;;;22.73;16.77;;;;;;;0.91;82.75;99553.05;1745418;82;21024;-79
2021/12/04 09:11:32;;;;;;;30.00;18.87;;;;;;;1.00;82.87;99551.91;1717405;82;21091;-80
2021/12/04 09:13:58;;;;;;;26.93;19.50;;;;;;;1.03;82.50;99547.53;1716708;82;20957;-78
2021/12/04 09:16:25;;;;;;;24.73;18.43;;;;;;;1.06;82.32;99544.49;1740639;82;21521;-79
2021/12/04 09:18:51;;;;;;;23.47;17.73;;;;;;;1.10;82.56;99541.80;1740266;81;21068;-79
2021/12/04 09:21:19;;;;;;;23.13;17.73;;;;;;;1.19;82.51;99540.64;1740437;81;21586;-78
2021/12/04 09:23:53;;;;;;;33.37;20.43;;;;;;;1.21;82.29;99537.27;1716768;82;21074;-79
2021/12/04 09:26:40;;;;;;;33.27;18.80;;;;;;;1.27;82.38;99537.01;1740119;82;20994;-79
2021/12/04 09:34:06;;;;;;;32.60;19.20;;;;;;;1.51;82.08;99530.43;1740197;82;20909;-79
2021/12/04 10:01:08;;;;;;;30.43;16.00;;;;;;;2.04;78.87;99511.09;1740721;82;21564;-81
2021/12/04 10:03:41;;;;;;;20.53;14.43;;;;;;;2.03;78.46;99508.13;1737283;82;21545;-83
2021/12/04 10:06:34;;;;;;;18.10;13.55;;;;;;;2.09;78.39;99507.84;1737281;82;21004;-84
2021/12/04 10:20:22;;;;;;;22.62;13.60;;;;;;;2.17;76.13;99507.15;1740310;82;21011;-83
2021/12/04 10:33:44;;;;;;;34.90;19.85;;;;;;;2.53;73.95;99492.73;1706532;80;20943;-92
2021/12/04 10:36:11;;;;;;;27.20;17.55;;;;;;;2.43;73.57;99490.98;1747292;81;21029;-88
2021/12/04 10:38:41;;;;;;;23.18;15.18;;;;;;;2.45;74.12;99483.11;1736282;81;21578;-94
2021/12/04 10:41:07;;;;;;;27.77;19.00;;;;;;;2.50;73.82;99483.32;1698119;81;21563;-83
2021/12/04 10:43:35;;;;;;;26.60;20.90;;;;;;;2.53;73.97;99489.57;1733206;80;21027;-83
2021/12/04 10:46:16;;;;;;;27.10;19.75;;;;;;;2.54;73.48;99481.11;1754159;81;21114;-83
2021/12/04 10:48:51;;;;;;;34.00;19.87;;;;;;;2.51;73.82;99480.16;1729963;82;21087;-83
2021/12/04 10:51:35;;;;;;;29.10;20.02;;;;;;;2.54;74.15;99482.43;1750822;80;21008;-83
2021/12/04 10:54:04;;;;;;;24.05;17.92;;;;;;;2.59;73.84;99478.66;1754061;81;21145;-81
2021/12/04 10:59:25;;;;;;;26.15;17.02;;;;;;;2.70;73.50;99470.57;1751338;80;21104;-81
2021/12/04 11:04:32;;;;;;;30.10;19.98;;;;;;;2.67;73.27;99469.66;1790184;80;21067;-84
2021/12/04 11:07:21;;;;;;;28.65;19.02;;;;;;;2.66;73.68;99466.19;1732024;81;21023;-84
2021/12/04 11:21:34;;;;;;;35.30;23.35;;;;;;;2.87;72.22;99473.13;1753487;80;20992;-82
2021/12/04 11:26:38;;;;;;;35.78;21.50;;;;;;;2.99;72.10;99459.02;1743983;81;21581;-89
2021/12/04 11:45:10;;;;;;;23.73;16.37;;;;;;;3.38;70.06;99437.36;1720345;81;21054;-84
2021/12/04 11:47:42;;;;;;;27.82;19.60;;;;;;;3.43;70.01;99437.55;1720009;81;21533;-82
2021/12/04 11:50:24;;;;;;;27.98;19.50;;;;;;;3.51;69.61;99439.45;1709111;82;21212;-82
2021/12/04 11:52:55;;;;;;;29.52;19.17;;;;;;;3.60;69.54;99436.04;1721383;83;21571;-88
2021/12/04 11:55:23;;;;;;;31.30;18.27;;;;;;;3.66;69.22;99439.19;1735832;81;21012;-82
2021/12/04 11:57:50;;;;;;;26.82;18.87;;;;;;;3.59;68.46;99442.41;1737139;81;21095;-84
2021/12/04 12:00:30;;;;;;;26.97;17.45;;;;;;;3.49;68.19;99440.20;1735028;81;45251;-85
2021/12/04 12:03:18;;;;;;;23.38;17.48;;;;;;;3.51;68.59;99438.64;1748781;81;21095;-83
2021/12/04 12:06:00;;;;;;;32.48;20.23;;;;;;;3.47;67.96;99434.27;1767222;80;20957;-84
2021/12/04 12:08:36;;;;;;;25.65;17.95;;;;;;;3.50;68.16;99431.71;1767598;80;21015;-85
2021/12/04 12:11:11;;;;;;;28.62;19.82;;;;;;;3.57;68.19;99438.31;1767101;80;21056;-84
2021/12/04 12:13:41;;;;;;;33.08;19.20;;;;;;;3.62;67.99;99434.00;1737798;81;21042;-84
2021/12/04 12:16:21;;;;;;;30.60;19.52;;;;;;;3.60;67.47;99433.38;1736132;82;21117;-83
2021/12/04 12:19:03;;;;;;;31.55;21.02;;;;;;;3.58;67.53;99432.80;1720997;82;21696;-83
2021/12/04 12:22:01;;;;;;;35.50;22.10;;;;;;;3.45;67.96;99429.66;1740277;81;21494;-83
2021/12/04 12:27:42;;;;;;;41.83;26.17;;;;;;;3.24;69.02;99416.66;1754594;81;21022;-81
2021/12/04 12:36:11;;;;;;;40.80;25.82;;;;;;;3.26;69.57;99405.29;1718839;83;21607;-85
2021/12/04 12:38:46;;;;;;;35.63;26.27;;;;;;;3.25;69.98;99406.84;1718984;83;21501;-84
2021/12/04 12:41:42;;;;;;;39.10;25.37;;;;;;;3.26;70.24;99409.27;1718967;83;21083;-86
2021/12/04 12:44:23;;;;;;;39.38;25.85;;;;;;;3.28;70.41;99410.41;1718996;83;21543;-84
2021/12/04 12:47:04;;;;;;;31.35;20.90;;;;;;;3.24;70.58;99408.69;1697793;83;21087;-84
2021/12/04 12:49:43;;;;;;;34.45;23.83;;;;;;;3.22;70.84;99413.89;1739262;81;20990;-83
2021/12/04 12:52:25;;;;;;;32.70;24.52;;;;;;;3.16;70.92;99416.08;1733042;81;20989;-85
2021/12/04 12:55:06;;;;;;;31.65;22.48;;;;;;;3.04;71.20;99414.56;1755055;81;20949;-85
2021/12/04 12:57:39;;;;;;;43.52;25.32;;;;;;;3.04;71.49;99417.22;1753942;81;21163;-83
2021/12/04 13:11:47;;;;;;;32.88;20.97;;;;;;;2.82;72.48;99402.05;1736342;81;23027;-86
2021/12/04 13:14:33;;;;;;;34.85;22.25;;;;;;;2.82;72.99;99400.72;1735400;82;20961;-84
2021/12/04 13:17:13;;;;;;;26.62;21.00;;;;;;;2.79;72.64;99403.77;1735465;82;21084;-84
2021/12/04 13:19:42;;;;;;;38.53;22.42;;;;;;;2.74;72.92;99400.09;1735363;82;21017;-84
2021/12/04 13:22:18;;;;;;;32.73;22.70;;;;;;;2.71;73.04;99396.54;1705015;83;21056;-84
2021/12/04 13:24:46;;;;;;;33.38;20.12;;;;;;;2.62;73.40;99398.09;1684930;83;21060;-83
2021/12/04 13:29:44;;;;;;;36.13;22.73;;;;;;;2.50;73.97;99402.88;1722460;82;21030;-84
2021/12/04 13:32:13;;;;;;;30.55;20.57;;;;;;;2.41;74.37;99402.78;1742044;82;22035;-83
2021/12/04 13:34:40;;;;;;;27.52;19.20;;;;;;;2.32;74.65;99398.19;1741642;82;21545;-84
2021/12/04 13:37:07;;;;;;;25.88;19.80;;;;;;;2.28;74.88;99393.50;1742079;82;21496;-86
2021/12/04 13:39:35;;;;;;;34.08;22.32;;;;;;;2.24;75.23;99400.23;1722192;82;21092;-84
2021/12/04 13:42:03;;;;;;;27.55;18.62;;;;;;;2.15;75.39;99396.97;1741998;82;21596;-85
2021/12/04 13:44:30;;;;;;;29.10;19.30;;;;;;;2.16;75.72;99399.91;1741774;82;21136;-86
2021/12/04 13:47:08;;;;;;;36.25;20.62;;;;;;;2.14;75.89;99394.00;1741522;81;21041;-86
2021/12/04 13:50:00;;;;;;;24.07;17.07;;;;;;;2.07;76.14;99393.98;1722942;82;21157;-92
2021/12/04 13:52:31;;;;;;;26.35;18.87;;;;;;;2.05;76.31;99393.89;1738972;81;21020;-84
2021/12/04 13:55:06;;;;;;;29.50;18.07;;;;;;;1.99;76.49;99390.72;1717672;82;21044;-85
2021/12/04 13:57:33;;;;;;;29.10;19.32;;;;;;;1.94;76.69;99396.63;1727197;81;21604;-85
2021/12/04 14:00:00;;;;;;;29.70;19.27;;;;;;;1.92;76.93;99393.88;1732407;81;20877;-87
2021/12/04 14:02:29;;;;;;;26.50;16.37;;;;;;;1.96;77.00;99393.78;1748494;81;21546;-85
2021/12/04 14:05:13;;;;;;;25.65;18.50;;;;;;;1.97;77.00;99393.55;1719665;82;21039;-82
2021/12/04 14:07:53;;;;;;;27.25;17.42;;;;;;;1.94;76.96;99389.17;1716726;81;21327;-86
2021/12/04 14:10:38;;;;;;;30.95;19.00;;;;;;;1.90;77.22;99387.95;1743135;81;21061;-91
2021/12/04 14:13:05;;;;;;;32.25;21.25;;;;;;;1.84;77.47;99386.09;1698507;83;21521;-88
2021/12/04 14:15:32;;;;;;;33.28;21.30;;;;;;;1.73;77.86;99390.96;1742838;81;21309;-93
2021/12/04 14:18:02;;;;;;;36.63;22.73;;;;;;;1.65;78.25;99397.78;1702119;83;21045;-90
2021/12/04 14:20:31;;;;;;;34.13;21.45;;;;;;;1.64;78.53;99395.31;1737700;81;21004;-87